createdAt,value
2022-11-12T00:00:08.572Z,99.99
2022-11-12T00:01:08.552Z,99.99
2022-11-12T00:02:08.505Z,99.99
2022-11-12T00:03:08.265Z,99.99
2022-11-12T00:04:08.507Z,99.99
2022-11-12T00:05:08.607Z,99.99
2022-11-12T00:06:08.222Z,99.99
2022-11-12T00:07:08.538Z,99.99
2022-11-12T00:08:08.446Z,99.99
2022-11-12T00:09:08.431Z,99.99
2022-11-12T00:10:08.414Z,99.99
2022-11-12T00:11:08.142Z,99.99
2022-11-12T00:12:08.386Z,99.99
2022-11-12T00:13:08.367Z,99.99
2022-11-12T00:14:08.375Z,99.99
2022-11-12T00:15:08.082Z,99.99
2022-11-12T00:16:08.076Z,99.99
2022-11-12T00:17:08.305Z,99.99
2022-11-12T00:18:08.414Z,99.99
2022-11-12T00:19:08.025Z,99.99
2022-11-12T00:20:08.262Z,99.99
2022-11-12T00:21:08.365Z,99.99
2022-11-12T00:22:08.235Z,99.99
2022-11-12T00:23:08.270Z,99.99
2022-11-12T00:24:08.199Z,99.99
2022-11-12T00:25:08.185Z,99.99
2022-11-12T00:26:08.168Z,99.99
2022-11-12T00:27:07.900Z,99.99
2022-11-12T00:28:08.145Z,99.99
2022-11-12T00:29:07.899Z,99.99
2022-11-12T00:30:08.106Z,99.99
2022-11-12T00:31:07.843Z,99.99
2022-11-12T00:32:08.079Z,99.99
2022-11-12T00:33:07.814Z,99.99
2022-11-12T00:34:07.910Z,99.99
2022-11-12T00:35:13.613Z,99.99
2022-11-12T00:36:07.758Z,99.99
2022-11-12T00:37:08.124Z,99.99
2022-11-12T00:38:07.991Z,99.99
2022-11-12T00:39:07.717Z,99.99
2022-11-12T00:40:07.959Z,99.99
2022-11-12T00:41:07.690Z,99.99
2022-11-12T00:42:07.671Z,99.99
2022-11-12T00:43:07.912Z,99.99
2022-11-12T00:44:07.896Z,99.99
2022-11-12T00:45:07.885Z,99.99
2022-11-12T00:46:07.928Z,99.99
2022-11-12T00:47:07.851Z,99.99
2022-11-12T00:48:07.581Z,99.99
2022-11-12T00:49:08.191Z,99.99
2022-11-12T00:50:08.299Z,99.99
2022-11-12T00:51:07.910Z,99.99
2022-11-12T00:52:07.885Z,99.99
2022-11-12T00:53:08.240Z,99.99
2022-11-12T00:54:07.846Z,99.99
2022-11-12T00:55:08.094Z,99.99
2022-11-12T00:56:08.072Z,99.99
2022-11-12T00:57:08.061Z,99.99
2022-11-12T00:58:07.787Z,99.99
2022-11-12T00:59:08.027Z,99.99
2022-11-12T01:00:08.013Z,99.99
2022-11-12T01:01:08.192Z,99.99
2022-11-12T01:02:07.998Z,99.99
2022-11-12T01:03:07.712Z,99.99
2022-11-12T01:04:08.001Z,99.99
2022-11-12T01:05:07.938Z,99.99
2022-11-12T01:06:07.786Z,99.99
2022-11-12T01:07:08.009Z,99.99
2022-11-12T01:08:07.891Z,99.99
2022-11-12T01:09:07.988Z,99.99
2022-11-12T01:10:07.862Z,99.99
2022-11-12T01:11:07.585Z,99.99
2022-11-12T01:12:07.571Z,99.99
2022-11-12T01:13:07.558Z,99.99
2022-11-12T01:14:07.796Z,99.99
2022-11-12T01:15:07.781Z,99.99
2022-11-12T01:16:07.773Z,99.99
2022-11-12T01:17:07.502Z,99.99
2022-11-12T01:18:07.476Z,99.99
2022-11-12T01:19:07.715Z,99.99
2022-11-12T01:20:07.705Z,99.99
2022-11-12T01:21:07.687Z,99.99
2022-11-12T01:22:07.788Z,99.99
2022-11-12T01:23:07.653Z,99.99
2022-11-12T01:24:07.640Z,99.99
2022-11-12T01:25:07.736Z,99.99
2022-11-12T01:26:07.613Z,99.99
2022-11-12T01:27:07.586Z,99.99
2022-11-12T01:28:07.576Z,99.99
2022-11-12T01:29:07.560Z,99.99
2022-11-12T01:30:07.566Z,99.99
2022-11-12T01:31:07.531Z,99.99
2022-11-12T01:32:07.510Z,99.99
2022-11-12T01:33:07.242Z,99.99
2022-11-12T01:34:07.513Z,99.99
2022-11-12T01:35:07.465Z,99.99
2022-11-12T01:36:07.449Z,99.99
2022-11-12T01:37:07.433Z,99.99
2022-11-12T01:38:07.538Z,99.99
2022-11-12T01:39:07.399Z,99.99
2022-11-12T01:40:07.133Z,99.99
2022-11-12T01:41:07.489Z,99.99
2022-11-12T01:42:07.102Z,99.99
2022-11-12T01:43:07.088Z,99.99
2022-11-12T01:44:07.323Z,99.99
2022-11-12T01:45:07.313Z,99.99
2022-11-12T01:46:07.040Z,99.99
2022-11-12T01:47:07.026Z,99.99
2022-11-12T01:48:07.269Z,99.99
2022-11-12T01:49:06.992Z,99.99
2022-11-12T01:50:07.293Z,99.99
2022-11-12T01:51:07.216Z,99.99
2022-11-12T01:52:07.195Z,99.99
2022-11-12T01:53:07.384Z,99.99
2022-11-12T01:54:07.291Z,99.99
2022-11-12T01:55:07.148Z,99.99
2022-11-12T01:56:07.243Z,99.99
2022-11-12T01:57:07.348Z,99.99
2022-11-12T01:58:06.964Z,99.99
2022-11-12T01:59:07.196Z,99.99
2022-11-12T02:00:06.929Z,99.99
2022-11-12T02:01:07.018Z,99.99
2022-11-12T02:02:07.150Z,99.99
2022-11-12T02:03:07.139Z,99.99
2022-11-12T02:04:07.118Z,99.99
2022-11-12T02:05:07.108Z,99.99
2022-11-12T02:06:07.088Z,99.99
2022-11-12T02:07:07.230Z,99.99
2022-11-12T02:08:06.799Z,99.99
2022-11-12T02:09:07.039Z,99.99
2022-11-12T02:10:07.145Z,99.99
2022-11-12T02:11:06.751Z,99.99
2022-11-12T02:12:06.987Z,99.99
2022-11-12T02:13:07.100Z,99.99
2022-11-12T02:14:06.706Z,99.99
2022-11-12T02:15:06.946Z,99.99
2022-11-12T02:16:06.677Z,99.99
2022-11-12T02:17:06.921Z,99.99
2022-11-12T02:18:06.895Z,99.99
2022-11-12T02:19:06.882Z,99.99
2022-11-12T02:20:06.862Z,99.99
2022-11-12T02:21:06.844Z,99.99
2022-11-12T02:22:06.829Z,99.99
2022-11-12T02:23:06.818Z,99.99
2022-11-12T02:24:06.800Z,99.99
2022-11-12T02:25:06.530Z,99.99
2022-11-12T02:26:06.638Z,99.99
2022-11-12T02:27:06.503Z,99.99
2022-11-12T02:28:06.732Z,99.99
2022-11-12T02:29:06.836Z,99.99
2022-11-12T02:30:06.713Z,99.99
2022-11-12T02:31:06.690Z,99.99
2022-11-12T02:32:06.671Z,99.99
2022-11-12T02:33:06.406Z,99.99
2022-11-12T02:34:06.651Z,99.99
2022-11-12T02:35:06.629Z,99.99
2022-11-12T02:36:06.353Z,99.99
2022-11-12T02:37:06.347Z,99.99
2022-11-12T02:38:06.585Z,99.99
2022-11-12T02:39:06.566Z,99.99
2022-11-12T02:40:06.290Z,99.99
2022-11-12T02:41:06.534Z,99.99
2022-11-12T02:42:06.642Z,99.99
2022-11-12T02:43:06.502Z,99.99
2022-11-12T02:44:06.488Z,99.99
2022-11-12T02:45:06.586Z,99.99
2022-11-12T02:46:06.458Z,99.99
2022-11-12T02:47:06.444Z,99.99
2022-11-12T02:48:06.164Z,99.99
2022-11-12T02:49:06.151Z,99.99
2022-11-12T02:50:06.132Z,99.99
2022-11-12T02:51:06.382Z,99.99
2022-11-12T02:52:06.359Z,99.99
2022-11-12T02:53:06.356Z,99.99
2022-11-12T02:54:06.332Z,99.99
2022-11-12T02:55:06.333Z,99.99
2022-11-12T02:56:06.298Z,99.99
2022-11-12T02:57:06.276Z,99.99
2022-11-12T02:58:06.125Z,99.99
2022-11-12T02:59:05.996Z,99.99
2022-11-12T03:00:05.985Z,99.99
2022-11-12T03:01:06.470Z,99.99
2022-11-12T03:02:06.284Z,99.99
2022-11-12T03:03:05.932Z,99.99
2022-11-12T03:04:06.177Z,99.99
2022-11-12T03:05:06.150Z,99.99
2022-11-12T03:06:05.885Z,99.99
2022-11-12T03:07:06.207Z,99.99
2022-11-12T03:08:06.115Z,99.99
2022-11-12T03:09:06.089Z,99.99
2022-11-12T03:10:06.097Z,99.99
2022-11-12T03:11:05.803Z,99.99
2022-11-12T03:12:06.048Z,99.99
2022-11-12T03:13:05.778Z,99.99
2022-11-12T03:14:05.878Z,99.99
2022-11-12T03:15:05.993Z,99.99
2022-11-12T03:16:05.989Z,99.99
2022-11-12T03:17:06.101Z,99.99
2022-11-12T03:18:05.968Z,99.99
2022-11-12T03:19:05.939Z,99.99
2022-11-12T03:20:05.920Z,99.99
2022-11-12T03:21:05.909Z,99.99
2022-11-12T03:22:05.888Z,99.99
2022-11-12T03:23:05.616Z,99.99
2022-11-12T03:24:05.600Z,99.99
2022-11-12T03:25:05.583Z,99.99
2022-11-12T03:26:05.578Z,99.99
2022-11-12T03:27:05.810Z,99.99
2022-11-12T03:28:05.796Z,99.99
2022-11-12T03:29:05.776Z,99.99
2022-11-12T03:30:05.881Z,99.99
2022-11-12T03:31:05.505Z,99.99
2022-11-12T03:32:05.737Z,99.99
2022-11-12T03:49:32.681Z,99.99
2022-11-12T03:50:32.426Z,99.99
2022-11-12T03:51:32.144Z,99.99
2022-11-12T03:52:32.376Z,99.99
2022-11-12T03:53:32.367Z,99.99
2022-11-12T03:54:32.090Z,99.99
2022-11-12T03:55:32.327Z,99.99
2022-11-12T03:56:32.054Z,99.99
2022-11-12T03:57:32.289Z,99.99
2022-11-12T03:58:32.097Z,99.99
2022-11-12T03:59:32.262Z,99.99
2022-11-12T04:00:32.246Z,99.99
2022-11-12T04:01:32.275Z,99.99
2022-11-12T04:02:32.205Z,99.99
2022-11-12T04:03:32.184Z,99.99
2022-11-12T04:04:32.173Z,99.99
2022-11-12T04:05:32.388Z,99.99
2022-11-12T04:06:32.139Z,99.99
2022-11-12T04:07:32.123Z,99.99
2022-11-12T04:08:32.140Z,99.99
2022-11-12T04:09:31.835Z,99.99
2022-11-12T04:10:31.822Z,99.99
2022-11-12T04:11:31.803Z,99.99
2022-11-12T04:12:32.034Z,99.99
2022-11-12T04:13:31.779Z,99.99
2022-11-12T04:14:32.021Z,99.99
2022-11-12T04:15:31.731Z,99.99
2022-11-12T04:16:31.973Z,99.99
2022-11-12T04:17:31.706Z,99.99
2022-11-12T04:18:31.682Z,99.99
2022-11-12T04:19:31.667Z,99.99
2022-11-12T04:20:31.904Z,99.99
2022-11-12T04:21:32.131Z,99.99
2022-11-12T04:22:31.876Z,99.99
2022-11-12T04:23:31.855Z,99.99
2022-11-12T04:24:31.839Z,99.99
2022-11-12T04:25:31.569Z,99.99
2022-11-12T04:26:31.802Z,99.99
2022-11-12T04:27:31.537Z,99.99
2022-11-12T04:28:31.785Z,99.99
2022-11-12T04:29:37.353Z,99.99
2022-11-12T04:30:31.487Z,99.99
2022-11-12T04:31:31.471Z,99.99
2022-11-12T04:32:31.455Z,99.99
2022-11-12T04:33:31.694Z,99.99
2022-11-12T04:34:31.639Z,99.99
2022-11-12T04:35:31.665Z,99.99
2022-11-12T04:36:31.640Z,99.99
2022-11-12T04:37:31.879Z,99.99
2022-11-12T04:38:31.901Z,99.99
2022-11-12T04:39:31.604Z,99.99
2022-11-12T04:40:31.581Z,99.99
2022-11-12T04:41:31.308Z,99.99
2022-11-12T04:42:31.550Z,99.99
2022-11-12T04:43:31.280Z,99.99
2022-11-12T04:44:31.515Z,99.99
2022-11-12T04:45:31.245Z,99.99
2022-11-12T04:46:31.482Z,99.99
2022-11-12T04:47:31.461Z,99.99
2022-11-12T04:48:31.769Z,99.99
2022-11-12T04:49:31.177Z,99.99
2022-11-12T04:50:31.420Z,99.99
2022-11-12T04:51:31.392Z,99.99
2022-11-12T04:52:31.375Z,99.99
2022-11-12T04:53:31.593Z,99.99
2022-11-12T04:54:31.093Z,99.99
2022-11-12T04:55:31.373Z,99.99
2022-11-12T04:56:31.354Z,99.99
2022-11-12T04:57:31.081Z,99.99
2022-11-12T04:58:31.903Z,99.99
2022-11-12T04:59:31.097Z,99.99
2022-11-12T05:00:31.293Z,99.99
2022-11-12T05:01:31.384Z,99.99
2022-11-12T05:02:30.995Z,99.99
2022-11-12T05:03:31.239Z,99.99
2022-11-12T05:04:30.996Z,99.99
2022-11-12T05:05:36.174Z,99.99
2022-11-12T05:06:31.187Z,99.99
2022-11-12T05:07:30.917Z,99.99
2022-11-12T05:08:31.177Z,99.99
2022-11-12T05:09:31.380Z,99.99
2022-11-12T05:10:31.124Z,99.99
2022-11-12T05:11:30.849Z,99.99
2022-11-12T05:12:31.089Z,99.99
2022-11-12T05:13:31.068Z,99.99
2022-11-12T05:14:30.803Z,99.99
2022-11-12T05:15:31.044Z,99.99
2022-11-12T05:16:30.764Z,99.99
2022-11-12T05:17:30.750Z,99.99
2022-11-12T05:18:31.349Z,99.99
2022-11-12T05:19:30.969Z,99.99
2022-11-12T05:20:30.703Z,99.99
2022-11-12T05:21:30.940Z,99.99
2022-11-12T05:22:59.324Z,99.99
2022-11-12T05:23:30.898Z,99.99
2022-11-12T05:24:44.526Z,99.99
2022-11-12T05:25:30.990Z,99.99
2022-11-12T05:26:30.853Z,99.99
2022-11-12T05:27:30.844Z,99.99
2022-11-12T05:28:30.990Z,99.99
2022-11-12T05:29:30.799Z,99.99
2022-11-12T05:30:30.531Z,99.99
2022-11-12T05:31:30.524Z,99.99
2022-11-12T05:32:30.753Z,99.99
2022-11-12T05:33:30.738Z,99.99
2022-11-12T05:34:30.462Z,99.99
2022-11-12T05:35:30.700Z,99.99
2022-11-12T05:36:30.681Z,99.99
2022-11-12T05:37:30.666Z,99.99
2022-11-12T05:38:31.108Z,99.99
2022-11-12T05:39:30.380Z,99.99
2022-11-12T05:40:30.737Z,99.99
2022-11-12T05:42:06.153Z,99.99
2022-11-12T05:42:30.583Z,99.99
2022-11-12T05:43:30.316Z,99.99
2022-11-12T05:44:30.302Z,99.99
2022-11-12T05:45:30.284Z,99.99
2022-11-12T05:46:30.262Z,99.99
2022-11-12T05:47:30.500Z,99.99
2022-11-12T05:48:31.385Z,99.99
2022-11-12T05:49:30.216Z,99.99
2022-11-12T05:50:45.337Z,99.99
2022-11-12T05:51:30.176Z,99.99
2022-11-12T05:52:30.417Z,99.99
2022-11-12T05:53:30.405Z,99.99
2022-11-12T05:54:30.124Z,99.99
2022-11-12T05:55:37.082Z,99.99
2022-11-12T05:56:30.347Z,99.99
2022-11-12T05:57:30.447Z,99.99
2022-11-12T05:58:30.414Z,99.99
2022-11-12T05:59:30.297Z,99.99
2022-11-12T06:00:30.275Z,99.99
2022-11-12T06:01:30.263Z,99.99
2022-11-12T06:02:30.092Z,99.99
2022-11-12T06:03:30.233Z,99.99
2022-11-12T06:04:29.970Z,99.99
2022-11-12T06:05:29.940Z,99.99
2022-11-12T06:06:30.174Z,99.99
2022-11-12T06:07:30.167Z,99.99
2022-11-12T06:08:30.306Z,99.99
2022-11-12T06:09:29.872Z,99.99
2022-11-12T06:10:30.104Z,99.99
2022-11-12T06:11:30.214Z,99.99
2022-11-12T06:12:30.073Z,99.99
2022-11-12T06:13:30.174Z,99.99
2022-11-12T06:14:29.785Z,99.99
2022-11-12T06:15:30.557Z,99.99
2022-11-12T06:16:29.759Z,99.99
2022-11-12T06:17:29.993Z,99.99
2022-11-12T06:18:30.083Z,99.99
2022-11-12T06:19:29.703Z,99.99
2022-11-12T06:20:29.946Z,99.99
2022-11-12T06:21:29.926Z,99.99
2022-11-12T06:22:29.905Z,99.99
2022-11-12T06:23:29.888Z,99.99
2022-11-12T06:24:36.025Z,99.99
2022-11-12T06:25:29.605Z,99.99
2022-11-12T06:26:29.841Z,99.99
2022-11-12T06:27:29.940Z,99.99
2022-11-12T06:28:30.477Z,99.99
2022-11-12T06:29:29.921Z,99.99
2022-11-12T06:30:29.773Z,99.99
2022-11-12T06:31:29.755Z,99.99
2022-11-12T06:32:29.743Z,99.99
2022-11-12T06:33:29.466Z,99.99
2022-11-12T06:34:29.705Z,99.99
2022-11-12T06:35:29.435Z,99.99
2022-11-12T06:36:29.417Z,99.99
2022-11-12T06:37:29.656Z,99.99
2022-11-12T06:38:30.025Z,99.99
2022-11-12T06:39:29.617Z,99.99
2022-11-12T06:40:29.602Z,99.99
2022-11-12T06:41:29.341Z,99.99
2022-11-12T06:42:29.575Z,99.99
2022-11-12T06:43:29.674Z,99.99
2022-11-12T06:44:29.535Z,99.99
2022-11-12T06:45:29.636Z,99.99
2022-11-12T06:46:29.252Z,99.99
2022-11-12T06:47:29.494Z,99.99
2022-11-12T06:48:29.883Z,99.99
2022-11-12T06:49:29.456Z,99.99
2022-11-12T06:50:29.910Z,99.99
2022-11-12T06:51:29.888Z,99.99
2022-11-12T06:52:29.881Z,99.99
2022-11-12T06:53:29.852Z,99.99
2022-11-12T06:54:29.841Z,99.99
2022-11-12T06:55:29.570Z,99.99
2022-11-12T06:56:29.550Z,99.99
2022-11-12T06:57:29.535Z,99.99
2022-11-12T06:58:29.992Z,99.99
2022-11-12T06:59:29.871Z,99.99
2022-11-12T07:00:29.747Z,99.99
2022-11-12T07:01:29.998Z,99.99
2022-11-12T07:02:29.707Z,99.99
2022-11-12T07:03:29.684Z,99.99
2022-11-12T07:04:29.416Z,99.99
2022-11-12T07:05:29.404Z,99.99
2022-11-12T07:06:29.640Z,99.99
2022-11-12T07:07:29.442Z,99.99
2022-11-12T07:08:30.421Z,99.99
2022-11-12T07:09:29.329Z,99.99
2022-11-12T07:10:29.364Z,99.99
2022-11-12T07:11:29.296Z,99.99
2022-11-12T07:12:29.284Z,99.99
2022-11-12T07:13:29.513Z,99.99
2022-11-12T07:14:29.498Z,99.99
2022-11-12T07:15:29.603Z,99.99
2022-11-12T07:16:29.468Z,99.99
2022-11-12T07:17:29.581Z,99.99
2022-11-12T07:18:29.963Z,99.99
2022-11-12T07:19:29.428Z,99.99
2022-11-12T07:20:29.213Z,99.99
2022-11-12T07:21:29.390Z,99.99
2022-11-12T07:22:29.364Z,99.99
2022-11-12T07:23:29.353Z,99.99
2022-11-12T07:24:29.335Z,99.99
2022-11-12T07:25:29.315Z,99.99
2022-11-12T07:26:29.043Z,99.99
2022-11-12T07:27:29.287Z,99.99
2022-11-12T07:28:30.087Z,99.99
2022-11-12T07:29:48.983Z,99.99
2022-11-12T07:30:29.269Z,99.99
2022-11-12T07:31:29.346Z,99.99
2022-11-12T07:32:29.204Z,99.99
2022-11-12T07:33:29.311Z,99.99
2022-11-12T07:34:28.918Z,99.99
2022-11-12T07:35:28.898Z,99.99
2022-11-12T07:36:29.144Z,99.99
2022-11-12T07:37:29.121Z,99.99
2022-11-12T07:38:29.729Z,99.99
2022-11-12T07:39:28.841Z,99.99
2022-11-12T07:40:29.079Z,99.99
2022-11-12T07:41:29.057Z,99.99
2022-11-12T07:42:29.035Z,99.99
2022-11-12T07:43:29.023Z,99.99
2022-11-12T07:44:28.746Z,99.99
2022-11-12T07:45:28.734Z,99.99
2022-11-12T07:46:28.963Z,99.99
2022-11-12T07:47:29.073Z,99.99
2022-11-12T07:48:29.439Z,99.99
2022-11-12T07:49:29.043Z,99.99
2022-11-12T07:50:28.903Z,99.99
2022-11-12T07:51:28.635Z,99.99
2022-11-12T07:52:28.873Z,99.99
2022-11-12T07:53:28.855Z,99.99
2022-11-12T07:54:28.841Z,99.99
2022-11-12T07:55:28.834Z,99.99
2022-11-12T07:56:28.554Z,99.99
2022-11-12T07:57:28.531Z,99.99
2022-11-12T07:58:29.145Z,99.99
2022-11-12T07:59:28.499Z,99.99
2022-11-12T08:00:28.738Z,99.99
2022-11-12T08:01:28.904Z,99.99
2022-11-12T08:02:28.451Z,99.99
2022-11-12T08:03:28.810Z,99.99
2022-11-12T08:04:28.674Z,99.99
2022-11-12T08:05:28.780Z,99.99
2022-11-12T08:06:28.646Z,99.99
2022-11-12T08:07:28.998Z,99.99
2022-11-12T08:08:29.309Z,99.99
2022-11-12T08:09:28.597Z,99.99
2022-11-12T08:10:28.323Z,99.99
2022-11-12T08:11:28.311Z,99.99
2022-11-12T08:12:28.543Z,99.99
2022-11-12T08:13:28.302Z,99.99
2022-11-12T08:14:28.527Z,99.99
2022-11-12T08:15:28.241Z,99.99
2022-11-12T08:16:28.487Z,99.99
2022-11-12T08:17:28.475Z,99.99
2022-11-12T08:18:29.352Z,99.99
2022-11-12T08:19:28.551Z,99.99
2022-11-12T08:20:28.196Z,99.99
2022-11-12T08:21:28.518Z,99.99
2022-11-12T08:22:28.135Z,99.99
2022-11-12T08:23:28.366Z,99.99
2022-11-12T08:24:28.353Z,99.99
2022-11-12T08:25:28.082Z,99.99
2022-11-12T08:26:28.070Z,99.99
2022-11-12T08:27:28.054Z,99.99
2022-11-12T08:28:28.808Z,99.99
2022-11-12T08:29:28.023Z,99.99
2022-11-12T08:30:28.293Z,99.99
2022-11-12T08:31:28.240Z,99.99
2022-11-12T08:32:28.267Z,99.99
2022-11-12T08:33:27.961Z,99.99
2022-11-12T08:34:27.947Z,99.99
2022-11-12T08:35:28.298Z,99.99
2022-11-12T08:36:27.917Z,99.99
2022-11-12T08:37:28.269Z,99.99
2022-11-12T08:38:28.822Z,99.99
2022-11-12T08:39:28.117Z,99.99
2022-11-12T08:40:27.948Z,99.99
2022-11-12T08:41:27.835Z,99.99
2022-11-12T08:42:27.822Z,99.99
2022-11-12T08:43:28.055Z,99.99
2022-11-12T08:44:27.788Z,99.99
2022-11-12T08:45:28.027Z,99.99
2022-11-12T08:46:27.762Z,99.99
2022-11-12T08:47:27.991Z,99.99
2022-11-12T08:48:28.622Z,99.99
2022-11-12T08:49:27.712Z,99.99
2022-11-12T08:50:27.782Z,99.99
2022-11-12T08:51:28.057Z,99.99
2022-11-12T08:52:27.925Z,99.99
2022-11-12T08:53:28.028Z,99.99
2022-11-12T08:54:27.891Z,99.99
2022-11-12T08:55:27.873Z,99.99
2022-11-12T08:56:27.601Z,99.99
2022-11-12T08:57:27.847Z,99.99
2022-11-12T08:58:28.631Z,99.99
2022-11-12T08:59:27.566Z,99.99
2022-11-12T09:00:27.801Z,99.99
2022-11-12T09:01:27.609Z,99.99
2022-11-12T09:02:27.774Z,99.99
2022-11-12T09:03:27.510Z,99.99
2022-11-12T09:04:27.741Z,99.99
2022-11-12T09:05:27.474Z,99.99
2022-11-12T09:06:27.457Z,99.99
2022-11-12T09:07:57.629Z,99.99
2022-11-12T09:08:28.609Z,99.99
2022-11-12T09:09:28.100Z,99.99
2022-11-12T09:10:27.404Z,99.99
2022-11-12T09:11:27.652Z,99.99
2022-11-12T09:12:27.626Z,99.64
2022-11-12T09:13:27.820Z,98.69
2022-11-12T09:14:27.599Z,98.12
2022-11-12T09:15:43.105Z,96.5
2022-11-12T09:16:27.319Z,96.46
2022-11-12T09:17:27.303Z,95.98
2022-11-12T09:18:28.422Z,95.22
2022-11-12T09:19:27.276Z,94.37
2022-11-12T09:20:27.532Z,93.6
2022-11-12T09:21:27.244Z,93.04
2022-11-12T09:22:27.234Z,91.8
2022-11-12T09:23:27.594Z,91.61
2022-11-12T09:24:27.457Z,91.08
2022-11-12T09:25:27.564Z,90.7
2022-11-12T09:26:27.190Z,90.22
2022-11-12T09:27:27.420Z,89.75
2022-11-12T09:28:27.888Z,89.27
2022-11-12T09:29:27.403Z,88.7
2022-11-12T09:30:27.377Z,88.13
2022-11-12T09:31:27.119Z,87.56
2022-11-12T09:32:27.923Z,86.42
2022-11-12T09:33:27.912Z,85.94
2022-11-12T09:34:27.643Z,86.04
2022-11-12T09:35:27.893Z,84.8
2022-11-12T09:36:27.866Z,84.89
2022-11-12T09:37:27.858Z,84.33
2022-11-12T09:38:28.584Z,83.85
2022-11-12T09:39:27.695Z,83.56
2022-11-12T09:40:27.560Z,83.18
2022-11-12T09:41:27.925Z,83.09
2022-11-12T09:42:27.536Z,82.9
2022-11-12T09:43:27.779Z,82.51
2022-11-12T09:44:27.954Z,82.04
2022-11-12T09:45:27.753Z,81.18
2022-11-12T09:46:30.435Z,80.33
2022-11-12T09:47:27.481Z,79.7
2022-11-12T09:48:28.233Z,78.56
2022-11-12T09:49:27.701Z,77.89
2022-11-12T09:50:27.433Z,77.32
2022-11-12T09:51:27.677Z,76.65
2022-11-12T09:52:27.406Z,75.7
2022-11-12T09:53:27.394Z,75.79
2022-11-12T09:54:27.647Z,75.23
2022-11-12T09:55:27.741Z,73.99
2022-11-12T09:56:27.616Z,73.89
2022-11-12T09:57:27.712Z,73.22
2022-11-12T09:58:28.629Z,72.97
2022-11-12T09:59:27.323Z,72.69
2022-11-12T10:00:27.312Z,72.02
2022-11-12T10:01:27.667Z,72.5
2022-11-12T10:02:27.542Z,71.73
2022-11-12T10:03:27.524Z,71.93
2022-11-12T10:04:27.261Z,71.45
2022-11-12T10:05:27.506Z,71.26
2022-11-12T10:06:27.711Z,71.17
2022-11-12T10:07:27.971Z,71.17
2022-11-12T10:08:28.287Z,70.53
2022-11-12T10:09:27.757Z,70.25
2022-11-12T10:10:27.190Z,70.06
2022-11-12T10:11:27.547Z,69.39
2022-11-12T10:12:27.422Z,69.77
2022-11-12T10:13:27.525Z,69.01
2022-11-12T10:14:27.493Z,69.33
2022-11-12T10:15:27.475Z,69.14
2022-11-12T10:16:27.207Z,69.14
2022-11-12T10:17:27.449Z,69.14
2022-11-12T10:18:28.133Z,68.66
2022-11-12T10:19:27.435Z,68.57
2022-11-12T10:20:27.424Z,68.57
2022-11-12T10:21:27.406Z,68.88
2022-11-12T10:22:27.147Z,69.46
2022-11-12T10:23:27.388Z,68.41
2022-11-12T10:24:27.376Z,68.03
2022-11-12T10:25:27.357Z,66.92
2022-11-12T10:26:27.097Z,66.44
2022-11-12T10:27:27.207Z,66.53
2022-11-12T10:28:27.909Z,66.44
2022-11-12T10:29:27.439Z,66.44
2022-11-12T10:30:27.311Z,66.92
2022-11-12T10:31:27.303Z,67.24
2022-11-12T10:32:27.034Z,66.85
2022-11-12T10:33:27.020Z,67.24
2022-11-12T10:34:27.267Z,66.28
2022-11-12T10:35:27.256Z,65.71
2022-11-12T10:36:27.248Z,65.04
2022-11-12T10:37:27.229Z,64.18
2022-11-12T10:38:27.812Z,63.8
2022-11-12T10:39:26.966Z,63.07
2022-11-12T10:40:26.945Z,63.45
2022-11-12T10:41:26.939Z,62.87
2022-11-12T10:42:26.928Z,62.4
2022-11-12T10:43:27.295Z,62.4
2022-11-12T10:44:27.160Z,62.11
2022-11-12T10:45:27.266Z,61.63
2022-11-12T10:46:27.137Z,61.63
2022-11-12T10:47:26.877Z,60.2
2022-11-12T10:48:30.179Z,59.37
2022-11-12T10:49:26.866Z,59.08
2022-11-12T10:50:27.102Z,58.7
2022-11-12T10:51:27.091Z,58.12
2022-11-12T10:52:27.091Z,58.51
2022-11-12T10:53:26.818Z,58.41
2022-11-12T10:54:27.058Z,58.89
2022-11-12T10:55:26.801Z,58.41
2022-11-12T10:56:27.039Z,58.8
2022-11-12T10:57:27.043Z,58.54
2022-11-12T10:58:27.549Z,58.7
2022-11-12T10:59:27.144Z,58.25
2022-11-12T11:00:27.004Z,57.97
2022-11-12T11:01:28.873Z,57.75
2022-11-12T11:02:27.226Z,57.93
2022-11-12T11:03:26.981Z,58.03
2022-11-12T11:04:26.965Z,57.93
2022-11-12T11:05:26.706Z,58.03
2022-11-12T11:06:26.949Z,58.03
2022-11-12T11:07:26.709Z,58.12
2022-11-12T11:08:30.361Z,57.84
2022-11-12T11:09:26.929Z,57.75
2022-11-12T11:10:26.911Z,57.75
2022-11-12T11:11:26.651Z,57.55
2022-11-12T11:12:26.896Z,58.03
2022-11-12T11:13:26.884Z,58.12
2022-11-12T11:14:26.877Z,58.03
2022-11-12T11:15:26.991Z,58.03
2022-11-12T11:16:26.617Z,57.93
2022-11-12T11:17:26.975Z,57.93
2022-11-12T11:18:27.218Z,58.03
2022-11-12T11:19:26.577Z,58.22
2022-11-12T11:20:26.816Z,58.22
2022-11-12T11:21:26.985Z,58.25
2022-11-12T11:22:26.818Z,58.15
2022-11-12T11:23:26.545Z,58.06
2022-11-12T11:24:26.799Z,58.06
2022-11-12T11:25:26.778Z,58.06
2022-11-12T11:26:26.770Z,57.58
2022-11-12T11:27:26.768Z,57.84
2022-11-12T11:28:27.454Z,57.65
2022-11-12T11:29:26.745Z,57.93
2022-11-12T11:30:26.481Z,57.75
2022-11-12T11:31:26.836Z,57.84
2022-11-12T11:32:26.466Z,57.93
2022-11-12T11:33:26.826Z,57.65
2022-11-12T11:34:26.709Z,57.84
2022-11-12T11:35:26.447Z,57.65
2022-11-12T11:36:26.686Z,57.84
2022-11-12T11:37:26.775Z,57.84
2022-11-12T11:38:27.174Z,57.17
2022-11-12T11:39:26.400Z,57.29
2022-11-12T11:40:26.394Z,57.2
2022-11-12T11:41:26.385Z,57.87
2022-11-12T11:42:26.659Z,57.87
2022-11-12T11:43:26.615Z,58.06
2022-11-12T11:44:26.836Z,58.34
2022-11-12T11:45:26.348Z,58.63
2022-11-12T11:46:26.336Z,58.73
2022-11-12T11:47:57.593Z,59.49
2022-11-12T11:48:27.347Z,59.72
2022-11-12T11:49:26.746Z,60.29
2022-11-12T11:50:26.563Z,60.48
2022-11-12T11:51:28.604Z,60.19
2022-11-12T11:52:26.289Z,60.19
2022-11-12T11:53:26.278Z,60.29
2022-11-12T11:54:26.529Z,60.1
2022-11-12T11:55:26.515Z,59.62
2022-11-12T11:56:26.258Z,59.62
2022-11-12T11:57:26.248Z,59.75
2022-11-12T11:58:26.991Z,59.36
2022-11-12T11:59:26.236Z,59.17
2022-11-12T12:00:26.223Z,58.5
2022-11-12T12:01:26.466Z,58.02
2022-11-12T12:02:26.463Z,57.26
2022-11-12T12:03:30.469Z,56.39
2022-11-12T12:04:26.450Z,55.91
2022-11-12T12:05:26.574Z,55.73
2022-11-12T12:06:26.437Z,55.44
2022-11-12T12:07:26.167Z,54.67
2022-11-12T12:08:26.667Z,54
2022-11-12T12:09:26.405Z,53.83
2022-11-12T12:11:26.132Z,53.93
2022-11-12T12:12:26.131Z,53.36
2022-11-12T12:13:26.115Z,52.97
2022-11-12T12:14:26.110Z,53.45
2022-11-12T12:15:26.098Z,52.78
2022-11-12T12:16:26.357Z,53.16
2022-11-12T12:17:32.106Z,52.87
2022-11-12T12:18:26.853Z,52.59
2022-11-12T12:19:26.969Z,53.74
2022-11-12T12:20:26.839Z,54.03
2022-11-12T12:21:26.944Z,54.22
2022-11-12T12:22:26.566Z,54.5
2022-11-12T12:23:26.808Z,54.41
2022-11-12T12:24:26.807Z,54.89
2022-11-12T12:25:26.796Z,54.99
2022-11-12T12:26:26.790Z,55.34
2022-11-12T12:27:26.530Z,55.15
2022-11-12T12:28:27.311Z,55.05
2022-11-12T12:29:26.519Z,55.34
2022-11-12T12:30:26.513Z,55.73
2022-11-12T12:31:26.497Z,56.01
2022-11-12T12:32:26.906Z,56.49
2022-11-12T12:33:26.742Z,56.68
2022-11-12T12:34:26.732Z,56.39
2022-11-12T12:35:26.852Z,56.77
2022-11-12T12:36:26.715Z,56.68
2022-11-12T12:37:26.845Z,56.97
2022-11-12T12:38:27.450Z,57.45
2022-11-12T12:39:26.695Z,57.73
2022-11-12T12:40:26.688Z,57.83
2022-11-12T12:41:26.434Z,57.92
2022-11-12T12:42:26.672Z,58.31
2022-11-12T12:43:26.668Z,58.5
2022-11-12T12:44:26.656Z,59.36
2022-11-12T12:45:28.668Z,59.75
2022-11-12T12:46:26.646Z,60.8
2022-11-12T12:47:26.376Z,61.85
2022-11-12T12:48:27.100Z,62.43
2022-11-12T12:49:26.619Z,63.29
2022-11-12T12:50:26.352Z,62.71
2022-11-12T12:51:26.469Z,62.43
2022-11-12T12:52:26.604Z,63.1
2022-11-12T12:53:26.716Z,63.29
2022-11-12T12:54:26.580Z,62.62
2022-11-12T12:55:26.583Z,62.23
2022-11-12T12:56:26.319Z,62.04
2022-11-12T12:57:26.574Z,62.23
2022-11-12T12:58:27.402Z,62.52
2022-11-12T12:59:26.290Z,63.1
2022-11-12T13:00:26.336Z,63
2022-11-12T13:01:26.645Z,62.23
2022-11-12T13:02:26.272Z,62.23
2022-11-12T13:03:26.260Z,62.33
2022-11-12T13:04:26.528Z,61.94
2022-11-12T13:05:26.507Z,61.66
2022-11-12T13:06:26.493Z,60.89
2022-11-12T13:07:26.683Z,61.18
2022-11-12T13:08:27.213Z,60.61
2022-11-12T13:09:26.741Z,60.51
2022-11-12T13:10:26.207Z,60.61